Time;durP1;ratioP1;P1;durP2;ratioP2;P2;SDS_P1;SDS_P2;PMS_P1;PMS_P2;Temp;Humidity;BMP_temperature;BMP_pressure;BME280_temperature;BME280_humidity;BME280_pressure;Samples;Min_cycle;Max_cycle;Signal;HPM_P1;HPM_P2
2022/07/05 00:01:05;;;;;;;1.50;1.40;;;27.00;43.90;;;;;;5067896;28;45253;-67
2022/07/05 00:03:32;;;;;;;1.52;1.42;;;27.00;43.80;;;;;;5067415;28;45217;-67
2022/07/05 00:05:58;;;;;;;1.50;1.38;;;27.00;43.90;;;;;;5067411;28;45206;-67
2022/07/05 00:08:26;;;;;;;2.53;1.48;;;27.00;43.90;;;;;;5067345;28;45223;-68
2022/07/05 00:10:52;;;;;;;1.92;1.42;;;27.00;43.80;;;;;;5067707;28;45292;-68
2022/07/05 00:13:19;;;;;;;2.08;1.58;;;26.90;43.90;;;;;;5067340;28;45325;-67
2022/07/05 00:15:46;;;;;;;1.60;1.50;;;26.90;43.90;;;;;;5067261;28;45244;-68
2022/07/05 00:18:14;;;;;;;1.50;1.40;;;26.90;44.10;;;;;;5067533;28;45186;-68
2022/07/05 00:20:41;;;;;;;2.22;1.33;;;26.90;44.10;;;;;;5067604;28;45312;-68
2022/07/05 00:23:08;;;;;;;1.92;1.40;;;26.90;44.20;;;;;;5067200;28;45235;-67
2022/07/05 00:25:34;;;;;;;1.33;1.23;;;26.90;44.10;;;;;;5066558;28;45304;-68
2022/07/05 00:28:01;;;;;;;2.67;1.20;;;26.80;43.90;;;;;;5067095;28;45257;-68
2022/07/05 00:30:28;;;;;;;1.42;1.33;;;26.80;44.10;;;;;;5046715;28;45357;-67
2022/07/05 00:32:55;;;;;;;1.60;1.25;;;26.80;44.10;;;;;;5046849;28;46345;-68
2022/07/05 00:35:23;;;;;;;1.67;1.58;;;26.80;43.80;;;;;;5046863;28;45274;-67
2022/07/05 00:37:50;;;;;;;1.63;1.20;;;26.80;43.90;;;;;;5047012;28;45237;-67
2022/07/05 00:40:17;;;;;;;1.70;1.50;;;26.80;43.90;;;;;;5047054;28;45231;-68
2022/07/05 00:42:43;;;;;;;1.60;1.20;;;26.80;43.80;;;;;;5046673;28;45353;-68
2022/07/05 00:45:11;;;;;;;1.52;1.42;;;26.70;43.90;;;;;;5046853;28;45200;-68
2022/07/05 00:47:38;;;;;;;2.88;1.50;;;26.70;43.90;;;;;;5046854;28;45273;-68
2022/07/05 00:50:06;;;;;;;1.38;1.20;;;26.70;43.90;;;;;;5046868;28;45410;-68
2022/07/05 00:52:34;;;;;;;1.40;1.30;;;26.70;43.90;;;;;;5046450;28;46687;-68
2022/07/05 00:55:01;;;;;;;1.40;1.30;;;26.70;43.90;;;;;;5046596;28;45243;-68
2022/07/05 00:57:27;;;;;;;1.73;1.13;;;26.70;43.80;;;;;;5046763;28;45342;-68
2022/07/05 00:59:54;;;;;;;1.33;1.27;;;26.70;44.00;;;;;;5046846;28;45367;-68
2022/07/05 01:02:23;;;;;;;1.35;1.17;;;26.60;44.00;;;;;;5046396;28;46471;-68
2022/07/05 01:04:50;;;;;;;1.05;1.00;;;26.60;43.90;;;;;;5046388;28;45621;-68
2022/07/05 01:07:17;;;;;;;3.22;1.30;;;26.60;43.90;;;;;;5046388;28;45412;-68
2022/07/05 01:09:45;;;;;;;2.03;1.25;;;26.60;44.00;;;;;;5046618;28;45437;-68
2022/07/05 01:12:12;;;;;;;2.33;1.20;;;26.60;44.00;;;;;;5046339;28;46415;-68
2022/07/05 01:14:39;;;;;;;1.80;1.20;;;26.60;43.80;;;;;;5046423;28;45284;-67
2022/07/05 01:17:06;;;;;;;1.42;1.33;;;26.60;43.90;;;;;;5045755;28;45187;-68
2022/07/05 01:19:33;;;;;;;2.83;1.35;;;26.60;44.10;;;;;;5046628;28;45487;-68
2022/07/05 01:21:59;;;;;;;1.73;1.25;;;26.50;44.00;;;;;;5046520;28;45278;-68
2022/07/05 01:24:27;;;;;;;1.95;1.20;;;26.50;43.90;;;;;;5046067;28;45274;-67
2022/07/05 01:26:55;;;;;;;1.10;1.10;;;26.50;44.00;;;;;;5046339;28;45231;-68
2022/07/05 01:29:21;;;;;;;1.20;1.10;;;26.50;44.10;;;;;;5057590;28;45214;-68
2022/07/05 01:31:48;;;;;;;1.27;1.10;;;26.50;44.00;;;;;;5066246;28;46664;-68
2022/07/05 01:34:15;;;;;;;1.33;1.23;;;26.50;44.00;;;;;;5066233;28;45216;-68
2022/07/05 01:36:42;;;;;;;1.27;0.90;;;26.40;43.90;;;;;;5067916;28;45321;-68
2022/07/05 01:39:09;;;;;;;1.42;1.33;;;26.40;44.00;;;;;;5070266;28;45239;-68
2022/07/05 01:41:37;;;;;;;1.20;1.20;;;26.40;43.90;;;;;;5069691;28;46707;-68
2022/07/05 01:44:04;;;;;;;1.27;1.27;;;26.40;43.90;;;;;;5069746;28;45350;-67
2022/07/05 01:46:32;;;;;;;1.20;1.10;;;26.40;44.00;;;;;;5067117;28;45288;-68
2022/07/05 01:48:59;;;;;;;1.40;1.20;;;26.40;43.90;;;;;;5070013;28;45115;-68
2022/07/05 01:51:27;;;;;;;1.17;1.13;;;26.40;44.00;;;;;;5069561;28;45266;-68
2022/07/05 01:53:54;;;;;;;1.10;1.10;;;26.30;43.90;;;;;;5069522;28;45317;-68
2022/07/05 01:56:21;;;;;;;1.00;1.00;;;26.30;43.90;;;;;;5069724;28;45228;-68
2022/07/05 01:58:49;;;;;;;1.27;1.10;;;26.30;44.00;;;;;;5069766;28;45361;-68
2022/07/05 02:01:16;;;;;;;1.48;1.38;;;26.30;43.90;;;;;;5069227;28;46672;-67
2022/07/05 02:03:43;;;;;;;1.35;1.20;;;26.20;43.80;;;;;;5068656;28;45264;-68
2022/07/05 02:06:11;;;;;;;1.38;1.27;;;26.20;43.90;;;;;;5069407;28;45363;-68
2022/07/05 02:08:37;;;;;;;1.30;1.25;;;26.20;44.00;;;;;;5069411;28;45353;-68
2022/07/05 02:11:04;;;;;;;1.48;1.02;;;26.20;43.90;;;;;;5069174;28;45181;-68
2022/07/05 02:13:31;;;;;;;1.20;1.20;;;26.20;43.90;;;;;;5069391;28;45258;-68
2022/07/05 02:15:59;;;;;;;1.95;1.30;;;26.20;44.00;;;;;;5069370;28;45217;-68
2022/07/05 02:18:26;;;;;;;1.20;1.10;;;26.10;44.00;;;;;;5069436;28;45396;-68
2022/07/05 02:20:53;;;;;;;2.20;1.20;;;26.10;44.00;;;;;;5069054;28;47337;-67
2022/07/05 02:23:20;;;;;;;1.30;1.20;;;26.10;43.90;;;;;;5069064;28;45190;-68
2022/07/05 02:25:46;;;;;;;1.10;1.10;;;26.10;44.00;;;;;;5069103;28;45280;-67
2022/07/05 02:28:14;;;;;;;1.20;1.10;;;26.10;44.00;;;;;;5067389;28;45178;-68
2022/07/05 02:30:41;;;;;;;1.17;1.10;;;26.00;44.10;;;;;;5048742;28;45482;-67
2022/07/05 02:33:09;;;;;;;1.02;1.02;;;26.00;44.10;;;;;;5048718;28;45381;-68
2022/07/05 02:35:35;;;;;;;1.38;1.20;;;26.00;44.00;;;;;;5048889;28;45214;-68
2022/07/05 02:38:02;;;;;;;1.42;1.30;;;26.00;44.00;;;;;;5048999;28;45383;-68
2022/07/05 02:40:29;;;;;;;1.30;1.20;;;26.00;44.20;;;;;;5048622;28;46379;-68
2022/07/05 02:42:57;;;;;;;1.42;1.17;;;26.00;44.20;;;;;;5048889;28;45289;-68
2022/07/05 02:45:24;;;;;;;0.95;0.93;;;26.00;44.80;;;;;;5049299;28;45194;-68
2022/07/05 02:47:51;;;;;;;2.08;0.90;;;26.00;44.10;;;;;;5047787;28;45112;-68
2022/07/05 02:50:19;;;;;;;1.08;1.08;;;26.00;44.20;;;;;;5048458;28;45324;-68
2022/07/05 02:52:46;;;;;;;1.20;1.10;;;25.90;44.00;;;;;;5048368;28;45340;-68
2022/07/05 02:55:12;;;;;;;1.20;1.08;;;25.90;44.10;;;;;;5048615;28;45297;-68
2022/07/05 02:57:39;;;;;;;1.30;1.20;;;25.90;44.20;;;;;;5048764;28;45389;-68
2022/07/05 03:00:08;;;;;;;1.60;1.00;;;25.90;44.10;;;;;;5048310;28;46770;-67
2022/07/05 03:02:35;;;;;;;4.13;1.33;;;25.90;44.10;;;;;;5048744;28;45377;-67
2022/07/05 03:05:02;;;;;;;1.13;1.02;;;25.90;44.20;;;;;;5048372;28;45301;-68
2022/07/05 03:07:30;;;;;;;1.88;1.02;;;25.90;44.10;;;;;;5048234;28;45424;-67
2022/07/05 03:09:57;;;;;;;1.00;1.00;;;25.90;44.20;;;;;;5048087;28;47308;-67
2022/07/05 03:12:23;;;;;;;1.23;1.13;;;25.90;44.20;;;;;;5048478;28;45202;-68
2022/07/05 03:14:50;;;;;;;1.63;1.02;;;25.80;44.20;;;;;;5048426;28;45257;-68
2022/07/05 03:17:17;;;;;;;2.10;1.27;;;25.80;44.30;;;;;;5048767;28;45332;-67
2022/07/05 03:19:44;;;;;;;1.20;1.10;;;25.80;44.30;;;;;;5047980;28;45505;-68
2022/07/05 03:22:10;;;;;;;0.80;0.80;;;25.80;44.20;;;;;;5048132;28;45219;-68
2022/07/05 03:24:39;;;;;;;1.38;1.27;;;25.80;44.30;;;;;;5048228;28;45202;-68
2022/07/05 03:27:05;;;;;;;1.35;1.25;;;25.70;44.20;;;;;;5048210;28;45467;-68
2022/07/05 03:29:32;;;;;;;1.10;1.00;;;25.70;44.40;;;;;;5060475;28;46478;-68
2022/07/05 03:31:59;;;;;;;1.23;1.13;;;25.70;44.40;;;;;;5068174;28;45225;-68
2022/07/05 03:34:26;;;;;;;1.55;1.20;;;25.70;44.40;;;;;;5067399;28;45140;-67
2022/07/05 03:36:53;;;;;;;1.13;1.10;;;25.70;44.40;;;;;;5068266;28;45246;-67
2022/07/05 03:39:19;;;;;;;1.20;1.10;;;25.70;44.40;;;;;;5067782;28;45475;-68
2022/07/05 03:41:47;;;;;;;1.30;1.20;;;25.70;44.40;;;;;;5067998;28;45344;-68
2022/07/05 03:44:14;;;;;;;1.58;1.20;;;25.60;44.40;;;;;;5068150;28;45297;-68
2022/07/05 03:46:41;;;;;;;1.27;1.17;;;25.60;44.40;;;;;;5068054;28;45171;-68
2022/07/05 03:49:08;;;;;;;1.27;1.15;;;25.60;44.50;;;;;;5067752;28;47316;-68
2022/07/05 03:51:35;;;;;;;1.42;1.10;;;25.60;44.40;;;;;;5067975;28;45251;-68
2022/07/05 03:54:01;;;;;;;1.00;1.00;;;25.60;44.50;;;;;;5067944;28;45341;-68
2022/07/05 03:56:28;;;;;;;1.05;1.05;;;25.60;44.60;;;;;;5067794;28;45294;-67
2022/07/05 03:58:56;;;;;;;1.30;1.20;;;25.50;44.50;;;;;;5066558;28;46726;-67
2022/07/05 04:01:23;;;;;;;1.23;1.02;;;25.50;44.50;;;;;;5067593;28;45192;-67
2022/07/05 04:03:50;;;;;;;1.35;1.20;;;25.50;44.60;;;;;;5068027;28;45244;-67
2022/07/05 04:06:17;;;;;;;1.30;1.20;;;25.50;44.50;;;;;;5067714;28;45280;-67
2022/07/05 04:08:44;;;;;;;1.25;1.15;;;25.50;44.60;;;;;;5066600;28;46849;-68
2022/07/05 04:11:12;;;;;;;1.55;1.10;;;25.50;44.60;;;;;;5067506;28;45201;-68
2022/07/05 04:13:40;;;;;;;1.52;1.13;;;25.50;44.60;;;;;;5067471;28;45222;-67
2022/07/05 04:16:08;;;;;;;1.08;1.08;;;25.50;44.70;;;;;;5067766;28;45411;-67
2022/07/05 04:18:35;;;;;;;1.75;1.20;;;25.50;44.60;;;;;;5066580;28;46498;-65
2022/07/05 04:21:02;;;;;;;1.23;1.13;;;25.50;44.70;;;;;;5066922;28;45181;-67
2022/07/05 04:23:29;;;;;;;1.40;1.30;;;25.50;44.70;;;;;;5067338;28;45192;-67
2022/07/05 04:25:56;;;;;;;1.35;1.25;;;25.50;44.70;;;;;;5064741;28;45316;-67
2022/07/05 04:28:22;;;;;;;1.77;1.23;;;25.40;44.70;;;;;;5067048;28;47291;-67
2022/07/05 04:30:49;;;;;;;1.23;1.17;;;25.40;44.80;;;;;;5067144;28;45153;-67
2022/07/05 04:33:17;;;;;;;1.23;1.10;;;25.40;44.80;;;;;;5067180;28;45143;-68
2022/07/05 04:35:44;;;;;;;1.33;1.15;;;25.40;44.80;;;;;;5067273;28;45446;-68
2022/07/05 04:38:11;;;;;;;1.20;1.00;;;25.40;44.90;;;;;;5066915;28;46480;-67
2022/07/05 04:40:38;;;;;;;1.00;1.00;;;25.40;44.80;;;;;;5066991;28;45378;-68
2022/07/05 04:43:05;;;;;;;2.05;1.00;;;25.40;44.90;;;;;;5067003;28;45206;-68
2022/07/05 04:45:32;;;;;;;1.48;1.15;;;25.40;44.90;;;;;;5067224;28;45227;-67
2022/07/05 04:47:58;;;;;;;1.48;1.10;;;25.30;45.00;;;;;;5066691;28;46460;-68
2022/07/05 04:50:27;;;;;;;1.05;1.02;;;25.30;45.20;;;;;;5066700;28;45276;-68
2022/07/05 04:52:54;;;;;;;1.23;1.10;;;25.30;45.00;;;;;;5067077;28;45314;-68
2022/07/05 04:55:21;;;;;;;1.35;1.23;;;25.20;45.00;;;;;;5066858;28;45206;-68
2022/07/05 04:57:48;;;;;;;2.33;1.30;;;25.20;45.10;;;;;;5066632;28;47293;-68
2022/07/05 05:00:15;;;;;;;1.85;1.20;;;25.20;45.20;;;;;;5066492;28;45281;-68
2022/07/05 05:02:42;;;;;;;1.40;1.27;;;25.20;45.20;;;;;;5066546;28;45370;-68
2022/07/05 05:05:09;;;;;;;1.77;1.20;;;25.20;45.20;;;;;;5066233;28;45278;-68
2022/07/05 05:07:39;;;;;;;1.27;1.17;;;25.20;45.10;;;;;;5066115;28;46239;-68
2022/07/05 05:10:07;;;;;;;1.63;1.10;;;25.20;45.80;;;;;;5066391;28;45329;-67
2022/07/05 05:12:34;;;;;;;2.00;1.08;;;25.20;45.20;;;;;;5066683;28;45317;-68
2022/07/05 05:15:00;;;;;;;1.27;1.13;;;25.30;45.20;;;;;;5066941;28;45330;-68
2022/07/05 05:17:34;;;;;;;1.48;1.27;;;25.30;45.20;;;;;;5066347;28;45336;-68
2022/07/05 05:20:01;;;;;;;1.73;0.98;;;25.30;45.10;;;;;;5066418;28;45227;-68
2022/07/05 05:22:28;;;;;;;2.75;1.08;;;25.30;45.10;;;;;;5066593;28;45205;-68
2022/07/05 05:24:56;;;;;;;1.10;1.00;;;25.30;45.00;;;;;;5066550;28;45238;-68
2022/07/05 05:27:23;;;;;;;1.15;1.05;;;25.30;44.90;;;;;;5066129;28;47631;-68
2022/07/05 05:29:50;;;;;;;1.88;1.10;;;25.40;44.90;;;;;;5051009;28;45139;-69
2022/07/05 05:32:17;;;;;;;1.35;1.25;;;25.40;44.80;;;;;;5046181;28;45215;-69
2022/07/05 05:34:43;;;;;;;0.80;0.80;;;25.40;44.70;;;;;;5046254;28;45233;-68
2022/07/05 05:37:10;;;;;;;2.05;1.15;;;25.30;44.80;;;;;;5045788;28;45461;-68
2022/07/05 05:39:37;;;;;;;1.65;1.05;;;25.30;44.70;;;;;;5045943;28;45326;-68
2022/07/05 05:42:06;;;;;;;1.42;1.10;;;25.30;44.90;;;;;;5046136;28;45261;-68
2022/07/05 05:44:33;;;;;;;1.83;1.10;;;25.30;44.70;;;;;;5046255;28;45230;-68
2022/07/05 05:47:00;;;;;;;1.20;1.10;;;25.30;44.70;;;;;;5045611;28;46398;-68
2022/07/05 05:49:27;;;;;;;1.48;1.13;;;25.30;44.80;;;;;;5045940;28;45242;-68
2022/07/05 05:51:54;;;;;;;1.35;1.25;;;25.30;44.80;;;;;;5045287;28;45300;-68
2022/07/05 05:54:20;;;;;;;1.13;1.13;;;25.30;44.70;;;;;;5045826;28;45274;-68
2022/07/05 05:56:47;;;;;;;1.30;1.20;;;25.30;44.80;;;;;;5045669;28;46682;-68
2022/07/05 05:59:15;;;;;;;1.65;1.40;;;25.30;44.80;;;;;;5045957;28;45197;-68
2022/07/05 06:01:42;;;;;;;1.30;1.20;;;25.30;44.70;;;;;;5045788;28;45147;-68
2022/07/05 06:04:09;;;;;;;2.60;1.10;;;25.30;44.70;;;;;;5043443;28;45329;-68
2022/07/05 06:06:36;;;;;;;1.20;1.20;;;25.30;44.70;;;;;;5045431;28;45391;-68
2022/07/05 06:09:02;;;;;;;1.52;1.30;;;25.30;44.70;;;;;;5045501;28;45218;-68
2022/07/05 06:11:30;;;;;;;1.20;1.10;;;25.30;44.60;;;;;;5045754;28;45168;-68
2022/07/05 06:13:56;;;;;;;2.60;1.38;;;25.30;44.60;;;;;;5046021;28;45438;-68
2022/07/05 06:16:25;;;;;;;3.03;1.50;;;25.30;44.60;;;;;;5045490;28;45284;-68
2022/07/05 06:18:51;;;;;;;2.67;1.25;;;25.30;44.60;;;;;;5045388;28;45191;-68
2022/07/05 06:21:18;;;;;;;1.13;1.13;;;25.40;44.60;;;;;;5045653;28;45274;-68
2022/07/05 06:23:45;;;;;;;3.08;1.40;;;25.40;44.60;;;;;;5048706;28;45396;-69
2022/07/05 06:26:12;;;;;;;2.75;1.35;;;25.40;43.20;;;;;;5048482;28;46729;-68
2022/07/05 06:28:39;;;;;;;1.38;1.17;;;25.30;43.00;;;;;;5053901;28;45386;-68
2022/07/05 06:31:06;;;;;;;2.67;1.02;;;25.30;42.90;;;;;;5069303;28;45208;-68
2022/07/05 06:33:34;;;;;;;1.40;1.20;;;25.20;42.40;;;;;;5069354;28;45388;-68
2022/07/05 06:36:01;;;;;;;1.98;1.30;;;25.20;42.50;;;;;;5068927;28;46933;-68
2022/07/05 06:38:27;;;;;;;1.13;0.90;;;25.10;42.40;;;;;;5068242;28;45353;-68
2022/07/05 06:40:56;;;;;;;1.60;1.10;;;25.10;42.30;;;;;;5068992;28;45284;-68
2022/07/05 06:43:23;;;;;;;1.52;1.00;;;25.10;42.80;;;;;;5069138;28;45119;-68
2022/07/05 06:45:51;;;;;;;3.03;1.30;;;25.00;42.40;;;;;;5068138;28;46409;-68
2022/07/05 06:48:18;;;;;;;3.08;1.00;;;25.00;42.50;;;;;;5068456;28;45330;-68
2022/07/05 06:50:46;;;;;;;1.50;1.08;;;25.00;42.60;;;;;;5068647;28;45317;-68
2022/07/05 06:53:13;;;;;;;1.55;1.15;;;25.00;42.70;;;;;;5068685;28;45165;-68
2022/07/05 06:55:44;;;;;;;5.93;1.40;;;25.00;42.80;;;;;;5068124;28;46422;-68
2022/07/05 06:58:10;;;;;;;0.82;0.82;;;25.00;42.30;;;;;;5068266;28;45413;-68
2022/07/05 07:00:37;;;;;;;1.70;0.90;;;25.00;42.20;;;;;;5068403;28;45289;-68
2022/07/05 07:03:04;;;;;;;5.82;1.15;;;25.00;42.10;;;;;;5068496;28;45309;-68
2022/07/05 07:05:31;;;;;;;0.90;0.80;;;25.00;41.80;;;;;;5068212;28;46402;-68
2022/07/05 07:10:43;;;;;;;2.15;1.00;;;25.00;41.50;;;;;;5065874;28;45324;-68
2022/07/05 07:13:10;;;;;;;3.08;0.90;;;25.00;41.10;;;;;;5068656;28;45396;-68
2022/07/05 07:15:37;;;;;;;2.47;1.00;;;25.00;41.40;;;;;;5068012;28;46424;-68
2022/07/05 07:18:04;;;;;;;1.60;1.48;;;25.00;41.30;;;;;;5068105;28;45314;-69
2022/07/05 07:20:31;;;;;;;4.20;1.30;;;25.00;41.30;;;;;;5068194;28;45535;-68
2022/07/05 07:22:59;;;;;;;7.95;1.42;;;25.00;41.10;;;;;;5068358;28;45341;-69
2022/07/05 07:25:26;;;;;;;5.32;1.10;;;25.10;41.80;;;;;;5067712;28;46713;-68
2022/07/05 07:27:54;;;;;;;3.50;1.20;;;25.10;41.50;;;;;;5067740;28;45186;-68
2022/07/05 07:30:21;;;;;;;3.05;1.10;;;25.10;41.70;;;;;;5067085;28;45359;-68
2022/07/05 07:32:48;;;;;;;4.03;1.40;;;25.10;41.90;;;;;;5067821;28;45257;-68
2022/07/05 07:35:15;;;;;;;3.58;1.40;;;25.10;42.00;;;;;;5066680;28;46389;-68
2022/07/05 07:37:42;;;;;;;4.72;1.42;;;25.10;42.00;;;;;;5067754;28;45297;-68
2022/07/05 07:40:10;;;;;;;2.95;1.35;;;25.10;42.10;;;;;;5067873;28;45312;-68
2022/07/05 07:42:37;;;;;;;3.63;1.00;;;25.20;42.30;;;;;;5067804;28;45412;-68
2022/07/05 07:45:04;;;;;;;1.83;0.90;;;25.20;42.10;;;;;;5067905;28;45408;-66
2022/07/05 07:47:31;;;;;;;3.47;1.05;;;25.20;42.20;;;;;;5066503;28;45467;-69
2022/07/05 07:49:58;;;;;;;2.70;1.23;;;25.20;42.20;;;;;;5066427;28;45154;-67
2022/07/05 07:52:25;;;;;;;2.05;0.93;;;25.20;42.10;;;;;;5067913;28;45392;-67
2022/07/05 07:54:51;;;;;;;1.67;1.20;;;25.20;42.00;;;;;;5067230;28;45288;-67
2022/07/05 07:57:20;;;;;;;3.42;1.00;;;25.20;41.80;;;;;;5067652;28;45331;-68
2022/07/05 07:59:46;;;;;;;1.50;0.88;;;25.20;41.90;;;;;;5067671;28;45262;-67
2022/07/05 08:02:13;;;;;;;1.35;1.17;;;25.30;42.00;;;;;;5067433;28;45241;-68
2022/07/05 08:04:40;;;;;;;2.45;1.30;;;25.30;42.00;;;;;;5067354;28;46379;-68
2022/07/05 08:07:07;;;;;;;2.17;1.23;;;25.30;41.20;;;;;;5067251;28;45412;-68
2022/07/05 08:09:33;;;;;;;2.70;1.25;;;25.30;40.70;;;;;;5067318;28;45296;-67
2022/07/05 08:12:00;;;;;;;1.63;1.20;;;25.30;40.70;;;;;;5067540;28;45425;-67
2022/07/05 08:14:28;;;;;;;1.15;1.05;;;25.30;40.80;;;;;;5066511;28;46501;-68
2022/07/05 08:16:55;;;;;;;2.05;1.13;;;25.30;40.90;;;;;;5066909;28;45249;-67
2022/07/05 08:22:07;;;;;;;1.17;1.00;;;25.30;41.00;;;;;;5064545;28;45274;-67
2022/07/05 08:24:34;;;;;;;2.15;1.13;;;25.30;40.70;;;;;;5066990;28;46630;-68
2022/07/05 08:27:01;;;;;;;2.25;1.10;;;25.30;40.90;;;;;;5067177;28;45312;-67
2022/07/05 08:29:29;;;;;;;1.13;0.90;;;25.40;41.00;;;;;;5054742;28;45187;-68
2022/07/05 08:31:56;;;;;;;2.00;1.33;;;25.40;40.80;;;;;;5046864;28;45250;-68
2022/07/05 08:34:23;;;;;;;1.50;1.27;;;25.40;40.80;;;;;;5046923;28;45501;-68
2022/07/05 08:36:50;;;;;;;1.05;0.85;;;25.40;40.90;;;;;;5046802;28;45394;-67
2022/07/05 08:39:17;;;;;;;2.13;1.05;;;25.50;40.70;;;;;;5046638;28;45263;-67
2022/07/05 08:41:44;;;;;;;1.80;1.20;;;25.50;40.90;;;;;;5047017;28;45164;-67
2022/07/05 08:44:11;;;;;;;0.80;0.80;;;25.50;40.90;;;;;;5046736;28;45285;-67
2022/07/05 08:46:40;;;;;;;2.50;1.20;;;25.60;41.00;;;;;;5045948;28;45364;-67
2022/07/05 08:49:07;;;;;;;1.38;1.00;;;25.50;41.10;;;;;;5046506;28;45259;-68
2022/07/05 08:51:34;;;;;;;1.25;0.90;;;25.50;41.10;;;;;;5046497;28;45397;-67
2022/07/05 08:54:01;;;;;;;2.72;1.20;;;25.60;41.10;;;;;;5046452;28;45490;-69
2022/07/05 08:56:28;;;;;;;2.63;1.60;;;25.60;41.00;;;;;;5046397;28;45369;-67
2022/07/05 08:58:55;;;;;;;2.25;0.98;;;25.60;41.20;;;;;;5046737;28;45430;-67
2022/07/05 09:01:22;;;;;;;3.67;1.00;;;25.70;41.00;;;;;;5046090;28;45385;-68
2022/07/05 09:03:51;;;;;;;1.48;1.00;;;25.60;40.30;;;;;;5046145;28;45225;-68
2022/07/05 09:06:18;;;;;;;3.10;1.27;;;25.70;40.20;;;;;;5045730;28;45357;-68
2022/07/05 09:08:45;;;;;;;0.80;0.80;;;25.70;40.30;;;;;;5045846;28;45206;-67
2022/07/05 09:11:13;;;;;;;0.90;0.90;;;25.80;40.20;;;;;;5046568;28;45440;-68
2022/07/05 09:13:41;;;;;;;1.00;0.95;;;25.80;40.30;;;;;;5045594;28;45234;-67
2022/07/05 09:16:08;;;;;;;1.50;1.08;;;25.90;40.30;;;;;;5045971;28;45322;-67
2022/07/05 09:18:42;;;;;;;1.27;0.93;;;25.90;40.20;;;;;;5046170;28;45348;-67
2022/07/05 09:21:15;;;;;;;2.28;1.20;;;25.90;40.30;;;;;;5046231;28;45297;-67
2022/07/05 09:23:42;;;;;;;3.40;1.23;;;25.90;40.20;;;;;;5045769;28;46684;-67
2022/07/05 09:26:09;;;;;;;1.77;0.80;;;25.90;40.00;;;;;;5045966;28;45332;-68
2022/07/05 09:28:36;;;;;;;1.73;0.90;;;25.90;39.90;;;;;;5050634;28;45245;-68
2022/07/05 09:31:02;;;;;;;3.33;1.13;;;26.00;39.90;;;;;;5065991;28;45409;-67
2022/07/05 09:33:29;;;;;;;1.40;1.20;;;26.00;39.90;;;;;;5066098;28;45212;-68
2022/07/05 09:35:57;;;;;;;1.40;1.10;;;26.00;40.10;;;;;;5066724;28;45278;-67
2022/07/05 09:38:25;;;;;;;1.70;1.20;;;26.10;40.30;;;;;;5066281;28;45286;-68
2022/07/05 09:40:53;;;;;;;2.35;0.85;;;26.10;40.30;;;;;;5066238;28;45372;-68
2022/07/05 09:43:21;;;;;;;2.13;1.15;;;26.20;40.40;;;;;;5065917;28;46907;-67
2022/07/05 09:45:52;;;;;;;1.30;1.00;;;26.20;40.20;;;;;;5065841;28;45262;-67
2022/07/05 09:48:19;;;;;;;1.10;0.95;;;26.20;40.30;;;;;;5065693;28;45214;-67
2022/07/05 09:50:46;;;;;;;2.78;1.40;;;26.20;40.10;;;;;;5065812;28;45182;-67
2022/07/05 09:53:13;;;;;;;1.67;0.80;;;26.20;39.90;;;;;;5065469;28;47307;-67
2022/07/05 09:55:41;;;;;;;3.25;1.27;;;26.30;39.90;;;;;;5065345;28;45339;-67
2022/07/05 09:58:09;;;;;;;2.05;1.10;;;26.30;40.20;;;;;;5067943;28;45258;-67
2022/07/05 10:00:36;;;;;;;1.10;0.80;;;26.30;40.30;;;;;;5069183;28;45178;-67
2022/07/05 10:03:02;;;;;;;4.13;1.20;;;26.30;40.60;;;;;;5068678;28;45263;-67
2022/07/05 10:05:30;;;;;;;1.10;1.00;;;26.40;40.70;;;;;;5069146;28;45237;-67
2022/07/05 10:07:57;;;;;;;1.45;1.00;;;26.40;40.80;;;;;;5068899;28;45317;-67
2022/07/05 10:10:25;;;;;;;1.95;1.30;;;26.40;40.80;;;;;;5068976;28;45274;-67
2022/07/05 10:12:54;;;;;;;1.20;1.10;;;26.40;40.70;;;;;;5068857;28;45670;-66
2022/07/05 10:15:22;;;;;;;1.05;0.90;;;26.50;40.60;;;;;;5068849;28;45317;-67
2022/07/05 10:17:53;;;;;;;4.95;1.17;;;26.50;40.20;;;;;;5069192;28;45189;-67
2022/07/05 10:20:26;;;;;;;2.05;1.10;;;26.60;40.20;;;;;;5068993;28;45445;-67
2022/07/05 10:22:53;;;;;;;1.35;1.05;;;26.50;40.30;;;;;;5068492;28;45543;-67
2022/07/05 10:25:20;;;;;;;1.15;1.05;;;26.60;40.40;;;;;;5068842;28;45265;-68
2022/07/05 10:27:47;;;;;;;2.33;0.90;;;26.60;40.40;;;;;;5069196;28;45344;-68
2022/07/05 10:30:15;;;;;;;1.23;1.13;;;26.70;40.50;;;;;;5050518;28;45234;-68
2022/07/05 10:32:42;;;;;;;8.38;1.25;;;26.70;40.30;;;;;;5047714;28;45474;-67
2022/07/05 10:35:09;;;;;;;3.25;0.98;;;26.90;40.40;;;;;;5047128;28;45302;-67
2022/07/05 10:37:36;;;;;;;1.65;1.25;;;26.90;40.20;;;;;;5048193;28;45417;-67
2022/07/05 10:40:04;;;;;;;0.93;0.93;;;26.90;39.60;;;;;;5048564;28;45125;-65
2022/07/05 10:42:33;;;;;;;1.40;1.00;;;26.90;39.60;;;;;;5048059;28;46539;-66
2022/07/05 10:45:00;;;;;;;1.95;0.95;;;26.90;39.30;;;;;;5048096;28;45337;-67
2022/07/05 10:47:29;;;;;;;1.17;1.08;;;27.00;39.10;;;;;;5048367;28;45314;-67
2022/07/05 10:50:07;;;;;;;3.08;1.10;;;27.00;38.80;;;;;;5048383;28;45179;-67
2022/07/05 10:52:34;;;;;;;0.95;0.80;;;27.00;38.20;;;;;;5047686;28;46340;-67
2022/07/05 10:55:23;;;;;;;3.00;1.00;;;27.00;38.10;;;;;;5047740;28;45353;-67
2022/07/05 10:58:36;;;;;;;2.80;1.00;;;27.00;38.20;;;;;;5048334;28;45285;-68
2022/07/05 11:01:45;;;;;;;1.08;0.85;;;27.10;38.30;;;;;;5048049;28;45453;-67
2022/07/05 11:04:32;;;;;;;0.70;0.70;;;27.20;37.90;;;;;;5047483;28;45279;-67
2022/07/05 11:06:59;;;;;;;1.92;0.88;;;27.20;37.60;;;;;;5047331;28;45349;-67
2022/07/05 11:09:26;;;;;;;1.90;1.00;;;27.30;37.70;;;;;;5047502;28;45345;-67
2022/07/05 11:12:06;;;;;;;0.95;0.90;;;27.30;37.60;;;;;;5047923;28;45313;-67
2022/07/05 11:14:35;;;;;;;0.98;0.98;;;27.30;37.40;;;;;;5047523;28;46389;-67
2022/07/05 11:17:13;;;;;;;0.80;0.80;;;27.30;37.00;;;;;;5047814;28;45380;-67
2022/07/05 11:20:06;;;;;;;1.90;0.90;;;27.40;36.90;;;;;;5047967;28;45266;-67
2022/07/05 11:22:33;;;;;;;1.23;0.80;;;27.50;36.70;;;;;;5048078;28;45452;-67
2022/07/05 11:25:00;;;;;;;3.72;1.05;;;27.60;36.30;;;;;;5047531;28;45128;-67
2022/07/05 11:27:27;;;;;;;2.38;0.90;;;27.60;36.10;;;;;;5047385;28;45252;-67
2022/07/05 11:29:54;;;;;;;0.95;0.90;;;27.70;35.90;;;;;;5062946;28;45343;-67
2022/07/05 11:32:22;;;;;;;1.73;0.85;;;27.70;35.50;;;;;;5067859;28;45296;-67
2022/07/05 11:34:49;;;;;;;1.23;1.00;;;27.80;35.20;;;;;;5067552;28;47037;-67
2022/07/05 11:37:23;;;;;;;1.10;0.77;;;27.80;35.10;;;;;;5067796;28;45130;-67
2022/07/05 11:40:23;;;;;;;1.13;0.85;;;27.80;34.60;;;;;;5067938;28;45205;-67
2022/07/05 11:42:50;;;;;;;1.95;0.77;;;28.00;34.40;;;;;;5067573;28;45294;-68
2022/07/05 11:45:17;;;;;;;1.17;0.60;;;28.10;34.00;;;;;;5067610;28;47297;-67
2022/07/05 11:47:44;;;;;;;0.63;0.63;;;28.10;33.60;;;;;;5067273;28;45142;-67
2022/07/05 11:50:12;;;;;;;2.30;0.82;;;28.20;33.50;;;;;;5067470;28;45321;-67
2022/07/05 11:52:40;;;;;;;0.90;0.70;;;28.20;33.20;;;;;;5067763;28;45249;-67
2022/07/05 11:55:08;;;;;;;0.60;0.60;;;28.20;33.30;;;;;;5067059;28;46402;-67
2022/07/05 11:57:35;;;;;;;1.00;0.90;;;28.20;33.10;;;;;;5067137;28;45140;-67
2022/07/05 12:00:02;;;;;;;0.80;0.80;;;28.30;33.60;;;;;;5067110;28;45258;-68
2022/07/05 12:02:28;;;;;;;2.08;0.90;;;28.30;33.70;;;;;;5067059;28;45456;-67
2022/07/05 12:04:58;;;;;;;2.45;0.85;;;28.40;33.40;;;;;;5066958;28;46359;-68
2022/07/05 12:07:27;;;;;;;0.73;0.70;;;28.40;33.70;;;;;;5066736;28;45218;-68
2022/07/05 12:12:47;;;;;;;1.65;0.77;;;28.60;33.70;;;;;;5064660;28;45276;-67
2022/07/05 12:15:14;;;;;;;1.20;0.88;;;28.70;33.40;;;;;;5066727;28;45442;-67
2022/07/05 12:17:42;;;;;;;1.02;0.85;;;28.70;33.50;;;;;;5066718;28;45302;-68
2022/07/05 12:20:11;;;;;;;2.72;1.02;;;28.70;34.10;;;;;;5066447;28;45365;-68
2022/07/05 12:22:39;;;;;;;1.88;0.90;;;28.70;33.50;;;;;;5067192;28;45232;-67
2022/07/05 12:25:09;;;;;;;1.55;0.80;;;28.80;33.70;;;;;;5066854;28;45334;-67
2022/07/05 12:27:37;;;;;;;0.95;0.80;;;28.80;33.50;;;;;;5063480;28;45396;-68
2022/07/05 12:30:06;;;;;;;2.00;0.80;;;28.90;33.60;;;;;;5049554;28;45242;-67
2022/07/05 12:32:33;;;;;;;0.82;0.80;;;29.00;33.40;;;;;;5046732;28;45353;-68
2022/07/05 12:35:02;;;;;;;0.60;0.60;;;29.00;33.20;;;;;;5046540;28;45428;-67
2022/07/05 12:37:31;;;;;;;3.72;0.80;;;29.10;33.30;;;;;;5046362;28;45134;-68
2022/07/05 12:40:04;;;;;;;1.77;0.88;;;29.10;33.40;;;;;;5046579;28;45365;-68
2022/07/05 12:42:33;;;;;;;2.72;0.88;;;29.30;33.10;;;;;;5046531;28;45317;-68
2022/07/05 12:45:13;;;;;;;1.50;0.85;;;29.30;32.90;;;;;;5046232;28;46514;-67
2022/07/05 12:47:50;;;;;;;0.93;0.80;;;29.40;32.90;;;;;;5045882;28;45186;-67
2022/07/05 12:50:17;;;;;;;1.65;0.88;;;29.40;33.10;;;;;;5046514;28;45274;-67
2022/07/05 12:58:01;;;;;;;1.90;0.70;;;29.50;33.20;;;;;;5046882;28;45374;-68
2022/07/05 12:58:34;;;;;;;0.90;0.90;;;29.60;33.10;;;;;;5043378;28;45184;-67
2022/07/05 13:01:01;;;;;;;1.83;1.15;;;29.70;32.80;;;;;;5046294;28;45434;-67
2022/07/05 13:03:28;;;;;;;0.70;0.70;;;29.70;32.60;;;;;;5046620;28;45191;-67